Assawoman, Virginia
Current Conditions -  °F | °C
As of 5:54 AM on Saturday 20 Dec 2014 (Local Time) from KWAL Reporting Station
Clear Clear  
Wind Chill: 23°   Ceiling: Unl
Heat Index: 28°   Visibility: 10mi
Dew Point: 24°   Wind: 5mph
Humidity: 85%   Direction: 360°N
Pressure: 30.25"   Gusts: NA
Location:  37.88°N, 75.53°W
Report Text: KWAL 201054Z AUTO 36004KT 10SM CLR M02/M04 A3025 RMK AO2 SLP240 T10221044
Loading
Personal Weather Stations






























Interactive Weather Map New forecast layout! Learn more

10-Day Weather Forecast

Advertisements
Track Severe Weather on mobile